Time;durP1;ratioP1;P1;durP2;ratioP2;P2;SDS_P1;SDS_P2;PMS_P1;PMS_P2;Temp;Humidity;BMP_temperature;BMP_pressure;BME280_temperature;BME280_humidity;BME280_pressure;Samples;Min_cycle;Max_cycle;Signal;HPM_P1;HPM_P2
2023/10/04 00:00:54;;;;;;;0.20;0.20;;;;;;;;;;5132173;28;20487;-53
2023/10/04 00:03:19;;;;;;;0.13;0.13;;;;;;;;;;5133539;27;20508;-50
2023/10/04 00:05:45;;;;;;;0.10;0.10;;;;;;;;;;5132772;28;20130;-51
2023/10/04 00:08:11;;;;;;;0.20;0.20;;;;;;;;;;5132297;28;20085;-51
2023/10/04 00:10:36;;;;;;;0.10;0.10;;;;;;;;;;5133342;28;20047;-51
2023/10/04 00:13:02;;;;;;;0.13;0.13;;;;;;;;;;5133174;28;20054;-52
2023/10/04 00:15:29;;;;;;;0.10;0.10;;;;;;;;;;5133349;28;20385;-51
2023/10/04 00:17:54;;;;;;;0.10;0.10;;;;;;;;;;5132795;27;20086;-51
2023/10/04 00:20:21;;;;;;;0.20;0.20;;;;;;;;;;5132915;28;20049;-51
2023/10/04 00:22:47;;;;;;;0.10;0.10;;;;;;;;;;5132888;27;20047;-51
2023/10/04 00:25:20;;;;;;;0.10;0.10;;;;;;;;;;5132933;28;20079;-52
2023/10/04 00:27:46;;;;;;;0.20;0.20;;;;;;;;;;5149532;27;20119;-51
2023/10/04 00:30:13;;;;;;;0.10;0.10;;;;;;;;;;5133407;27;20054;-52
2023/10/04 00:32:39;;;;;;;0.10;0.10;;;;;;;;;;5132675;27;20154;-52
2023/10/04 00:35:09;;;;;;;0.10;0.10;;;;;;;;;;5133006;28;20053;-51
2023/10/04 00:37:35;;;;;;;0.10;0.10;;;;;;;;;;5132524;28;20062;-50
2023/10/04 00:40:01;;;;;;;0.15;0.15;;;;;;;;;;5132787;27;20051;-52
2023/10/04 00:42:26;;;;;;;0.10;0.10;;;;;;;;;;5132061;27;20448;-51
2023/10/04 00:44:52;;;;;;;0.10;0.10;;;;;;;;;;5132039;27;20091;-52
2023/10/04 00:47:18;;;;;;;0.10;0.10;;;;;;;;;;5130915;27;20468;-51
2023/10/04 00:49:45;;;;;;;0.10;0.10;;;;;;;;;;5131946;27;20047;-52
2023/10/04 00:52:11;;;;;;;0.10;0.10;;;;;;;;;;5132254;27;20050;-51
2023/10/04 00:54:38;;;;;;;0.10;0.10;;;;;;;;;;5132210;27;20059;-51
2023/10/04 00:57:05;;;;;;;0.10;0.10;;;;;;;;;;5132470;27;20076;-51
2023/10/04 00:59:31;;;;;;;0.10;0.10;;;;;;;;;;5131897;27;20054;-51
2023/10/04 01:01:57;;;;;;;0.10;0.10;;;;;;;;;;5132068;28;20453;-51
2023/10/04 01:04:22;;;;;;;0.10;0.10;;;;;;;;;;5132088;27;20078;-52
2023/10/04 01:06:48;;;;;;;0.10;0.10;;;;;;;;;;5131498;28;20047;-51
2023/10/04 01:09:14;;;;;;;0.10;0.10;;;;;;;;;;5131602;27;20039;-51
2023/10/04 01:11:47;;;;;;;0.10;0.10;;;;;;;;;;5131469;27;20172;-50
2023/10/04 01:14:23;;;;;;;0.13;0.13;;;;;;;;;;5132067;27;20047;-51
2023/10/04 01:16:50;;;;;;;0.10;0.10;;;;;;;;;;5131790;28;20080;-50
2023/10/04 01:19:17;;;;;;;0.10;0.10;;;;;;;;;;5131670;27;20097;-51
2023/10/04 01:21:43;;;;;;;0.10;0.10;;;;;;;;;;5132641;27;20055;-52
2023/10/04 01:24:09;;;;;;;0.10;0.10;;;;;;;;;;5132190;27;20138;-52
2023/10/04 01:26:36;;;;;;;0.10;0.10;;;;;;;;;;5142439;27;20038;-52
2023/10/04 01:29:07;;;;;;;0.10;0.10;;;;;;;;;;5138875;27;20058;-52
2023/10/04 01:31:33;;;;;;;0.10;0.10;;;;;;;;;;5132431;27;20047;-52
2023/10/04 01:33:59;;;;;;;0.10;0.10;;;;;;;;;;5132408;27;20055;-52
2023/10/04 01:36:24;;;;;;;0.17;0.17;;;;;;;;;;5132660;28;20133;-51
2023/10/04 01:38:51;;;;;;;0.10;0.10;;;;;;;;;;5131942;27;20126;-52
2023/10/04 01:41:17;;;;;;;0.10;0.10;;;;;;;;;;5132007;27;20051;-51
2023/10/04 01:43:43;;;;;;;0.10;0.10;;;;;;;;;;5131476;27;20044;-52
2023/10/04 01:46:08;;;;;;;0.10;0.10;;;;;;;;;;5131823;28;20042;-51
2023/10/04 01:48:35;;;;;;;0.10;0.10;;;;;;;;;;5130350;28;20051;-50
2023/10/04 01:51:02;;;;;;;0.10;0.10;;;;;;;;;;5132087;28;20068;-52
2023/10/04 01:53:29;;;;;;;0.10;0.10;;;;;;;;;;5131955;28;20047;-51
2023/10/04 01:55:54;;;;;;;0.20;0.20;;;;;;;;;;5132051;28;20404;-51
2023/10/04 01:58:23;;;;;;;0.20;0.20;;;;;;;;;;5131512;28;20051;-52
2023/10/04 02:00:49;;;;;;;0.20;0.20;;;;;;;;;;5131737;27;20043;-50
2023/10/04 02:03:16;;;;;;;0.10;0.10;;;;;;;;;;5131319;27;20492;-51
2023/10/04 02:05:42;;;;;;;0.20;0.20;;;;;;;;;;5130949;27;20295;-52
2023/10/04 02:08:09;;;;;;;0.10;0.10;;;;;;;;;;5131078;27;20129;-51
2023/10/04 02:10:35;;;;;;;0.10;0.10;;;;;;;;;;5130880;27;20487;-51
2023/10/04 02:13:00;;;;;;;0.10;0.10;;;;;;;;;;5130784;27;20103;-52
2023/10/04 02:15:26;;;;;;;0.20;0.20;;;;;;;;;;5131109;28;20191;-51
2023/10/04 02:17:53;;;;;;;0.10;0.10;;;;;;;;;;5130334;28;20058;-51
2023/10/04 02:20:24;;;;;;;0.10;0.10;;;;;;;;;;5131069;27;20124;-51
2023/10/04 02:22:50;;;;;;;0.10;0.10;;;;;;;;;;5107260;27;20048;-51
2023/10/04 02:25:17;;;;;;;0.20;0.20;;;;;;;;;;5090170;28;20590;-51
2023/10/04 02:27:44;;;;;;;0.20;0.20;;;;;;;;;;5093719;28;20473;-52
2023/10/04 02:30:15;;;;;;;0.10;0.10;;;;;;;;;;5130676;27;20079;-51
2023/10/04 02:32:42;;;;;;;0.20;0.20;;;;;;;;;;5131255;27;20047;-52
2023/10/04 02:35:09;;;;;;;0.10;0.10;;;;;;;;;;5130877;27;20383;-51
2023/10/04 02:37:34;;;;;;;0.15;0.15;;;;;;;;;;5129578;27;20070;-51
2023/10/04 02:40:01;;;;;;;0.10;0.10;;;;;;;;;;5130662;28;20134;-52
2023/10/04 02:42:28;;;;;;;0.10;0.10;;;;;;;;;;5129768;27;20470;-51
2023/10/04 02:44:54;;;;;;;0.10;0.10;;;;;;;;;;5130735;27;20057;-51
2023/10/04 02:47:19;;;;;;;0.10;0.10;;;;;;;;;;5130082;28;20047;-51
2023/10/04 02:49:45;;;;;;;0.20;0.20;;;;;;;;;;5129294;28;20046;-51
2023/10/04 02:52:13;;;;;;;0.20;0.20;;;;;;;;;;5130699;27;20047;-51
2023/10/04 02:54:40;;;;;;;0.10;0.10;;;;;;;;;;5130745;27;20388;-51
2023/10/04 02:57:07;;;;;;;0.10;0.10;;;;;;;;;;5129829;27;20052;-52
2023/10/04 02:59:32;;;;;;;0.10;0.10;;;;;;;;;;5129838;27;20475;-52
2023/10/04 03:01:58;;;;;;;0.10;0.10;;;;;;;;;;5129926;28;20057;-51
2023/10/04 03:04:24;;;;;;;0.20;0.20;;;;;;;;;;5130274;27;20096;-52
2023/10/04 03:06:51;;;;;;;0.10;0.10;;;;;;;;;;5130179;28;20048;-51
2023/10/04 03:09:17;;;;;;;0.10;0.10;;;;;;;;;;5129671;27;20469;-52
2023/10/04 03:11:43;;;;;;;0.10;0.10;;;;;;;;;;5130206;27;20138;-52
2023/10/04 03:14:11;;;;;;;0.10;0.10;;;;;;;;;;5130283;27;20062;-51
2023/10/04 03:16:37;;;;;;;0.10;0.10;;;;;;;;;;5130462;27;20047;-52
2023/10/04 03:19:03;;;;;;;0.10;0.10;;;;;;;;;;5130090;28;20047;-52
2023/10/04 03:21:33;;;;;;;0.10;0.10;;;;;;;;;;5127568;27;20133;-52
2023/10/04 03:23:59;;;;;;;0.10;0.10;;;;;;;;;;5150886;27;20046;-52
2023/10/04 03:26:25;;;;;;;0.10;0.10;;;;;;;;;;5150314;27;20062;-51
2023/10/04 03:28:50;;;;;;;0.10;0.10;;;;;;;;;;5138456;27;20475;-51
2023/10/04 03:31:20;;;;;;;0.10;0.10;;;;;;;;;;5130660;27;20043;-52
2023/10/04 03:33:46;;;;;;;0.10;0.10;;;;;;;;;;5132093;27;20050;-51
2023/10/04 03:36:17;;;;;;;0.10;0.10;;;;;;;;;;5134138;27;20040;-52
2023/10/04 03:38:43;;;;;;;0.10;0.10;;;;;;;;;;5133097;28;20463;-51
2023/10/04 03:41:09;;;;;;;0.10;0.10;;;;;;;;;;5134082;28;20050;-51
2023/10/04 03:43:35;;;;;;;0.20;0.20;;;;;;;;;;5133323;27;20142;-52
2023/10/04 03:46:08;;;;;;;0.10;0.10;;;;;;;;;;5133278;28;20376;-52
2023/10/04 03:48:37;;;;;;;0.10;0.10;;;;;;;;;;5132975;28;20509;-51
2023/10/04 03:51:03;;;;;;;0.10;0.10;;;;;;;;;;5133226;27;20046;-52
2023/10/04 03:53:29;;;;;;;0.10;0.10;;;;;;;;;;5133469;28;20059;-50
2023/10/04 03:55:55;;;;;;;0.10;0.10;;;;;;;;;;5134173;27;20054;-52
2023/10/04 03:58:20;;;;;;;0.10;0.10;;;;;;;;;;5133592;27;20051;-51
2023/10/04 04:00:46;;;;;;;0.10;0.10;;;;;;;;;;5133497;28;20065;-50
2023/10/04 04:03:12;;;;;;;0.10;0.10;;;;;;;;;;5133626;27;20055;-51
2023/10/04 04:05:41;;;;;;;0.10;0.10;;;;;;;;;;5132857;27;20051;-51
2023/10/04 04:08:07;;;;;;;0.10;0.10;;;;;;;;;;5132743;27;20051;-51
2023/10/04 04:10:33;;;;;;;0.10;0.10;;;;;;;;;;5133411;27;20050;-51
2023/10/04 04:12:59;;;;;;;0.10;0.10;;;;;;;;;;5133130;28;20452;-50
2023/10/04 04:15:26;;;;;;;0.10;0.10;;;;;;;;;;5133399;27;20070;-50
2023/10/04 04:17:54;;;;;;;0.10;0.10;;;;;;;;;;5132973;27;20074;-51
2023/10/04 04:20:23;;;;;;;0.10;0.10;;;;;;;;;;5131513;27;20039;-51
2023/10/04 04:22:53;;;;;;;0.10;0.10;;;;;;;;;;5144405;27;20066;-51
2023/10/04 04:25:19;;;;;;;0.10;0.10;;;;;;;;;;5154101;27;20050;-50
2023/10/04 04:27:46;;;;;;;0.10;0.10;;;;;;;;;;5150916;27;20043;-51
2023/10/04 04:30:19;;;;;;;0.10;0.10;;;;;;;;;;5132572;27;20407;-51
2023/10/04 04:32:47;;;;;;;0.10;0.10;;;;;;;;;;5133167;27;20047;-49
2023/10/04 04:35:22;;;;;;;0.10;0.10;;;;;;;;;;5133508;27;20055;-52
2023/10/04 04:37:48;;;;;;;0.10;0.10;;;;;;;;;;5132714;27;20047;-52
2023/10/04 04:40:17;;;;;;;0.20;0.20;;;;;;;;;;5132518;27;20051;-51
2023/10/04 04:42:47;;;;;;;0.10;0.10;;;;;;;;;;5132863;27;20051;-51
2023/10/04 04:45:25;;;;;;;0.10;0.10;;;;;;;;;;5132519;27;20047;-51
2023/10/04 04:47:51;;;;;;;0.10;0.10;;;;;;;;;;5132046;28;20050;-51
2023/10/04 04:50:17;;;;;;;0.20;0.20;;;;;;;;;;5132890;27;20043;-52
2023/10/04 04:52:42;;;;;;;0.38;0.38;;;;;;;;;;5132058;28;20096;-51
2023/10/04 04:55:10;;;;;;;0.10;0.10;;;;;;;;;;5132399;27;20424;-52
2023/10/04 04:57:36;;;;;;;;;;;;;;;;;;5133041;27;20047;-51
2023/10/04 05:00:19;;;;;;;0.17;0.17;;;;;;;;;;5132771;27;19919;-51
2023/10/04 05:02:45;;;;;;;0.10;0.10;;;;;;;;;;5132731;27;20050;-51
2023/10/04 05:05:11;;;;;;;0.10;0.10;;;;;;;;;;5131729;28;20047;-50
2023/10/04 05:07:38;;;;;;;0.20;0.20;;;;;;;;;;5131592;27;20475;-52
2023/10/04 05:10:03;;;;;;;0.10;0.10;;;;;;;;;;5132366;27;20170;-52
2023/10/04 05:12:30;;;;;;;0.10;0.10;;;;;;;;;;5131617;27;20166;-49
2023/10/04 05:14:56;;;;;;;0.10;0.10;;;;;;;;;;5132725;27;20494;-52
2023/10/04 05:17:21;;;;;;;0.10;0.10;;;;;;;;;;5132284;28;20137;-51
2023/10/04 05:19:47;;;;;;;0.20;0.20;;;;;;;;;;5129092;27;20495;-52
2023/10/04 05:22:14;;;;;;;0.10;0.10;;;;;;;;;;5136104;27;20074;-51
2023/10/04 05:24:40;;;;;;;0.10;0.10;;;;;;;;;;5153223;27;20089;-51
2023/10/04 05:27:06;;;;;;;0.10;0.10;;;;;;;;;;5153282;27;20047;-51
2023/10/04 05:29:32;;;;;;;0.10;0.10;;;;;;;;;;5134947;27;20042;-51
2023/10/04 05:31:58;;;;;;;0.10;0.10;;;;;;;;;;5132540;27;20058;-51
2023/10/04 05:34:24;;;;;;;0.10;0.10;;;;;;;;;;5132777;27;20050;-52
2023/10/04 05:36:50;;;;;;;0.10;0.10;;;;;;;;;;5132886;27;20137;-50
2023/10/04 05:39:16;;;;;;;0.10;0.10;;;;;;;;;;5132280;28;20071;-52
2023/10/04 05:41:41;;;;;;;0.10;0.10;;;;;;;;;;5131622;27;20495;-51
2023/10/04 05:44:08;;;;;;;0.10;0.10;;;;;;;;;;5132302;27;20047;-51
2023/10/04 05:46:34;;;;;;;0.10;0.10;;;;;;;;;;5131861;27;20124;-51
2023/10/04 05:49:00;;;;;;;0.10;0.10;;;;;;;;;;5130868;27;20054;-51
2023/10/04 05:51:30;;;;;;;0.10;0.10;;;;;;;;;;5131460;27;20072;-51
2023/10/04 05:53:55;;;;;;;0.10;0.10;;;;;;;;;;5130997;28;20436;-51
2023/10/04 05:56:23;;;;;;;0.10;0.10;;;;;;;;;;5130189;27;20491;-51
2023/10/04 05:58:48;;;;;;;0.15;0.15;;;;;;;;;;5131303;27;20059;-51
2023/10/04 06:01:17;;;;;;;0.10;0.10;;;;;;;;;;5131608;28;20431;-50
2023/10/04 06:03:43;;;;;;;0.10;0.10;;;;;;;;;;5131389;27;20099;-50
2023/10/04 06:06:09;;;;;;;0.10;0.10;;;;;;;;;;5130808;28;20055;-51
2023/10/04 06:08:34;;;;;;;0.10;0.10;;;;;;;;;;5130205;28;20415;-51
2023/10/04 06:11:00;;;;;;;0.10;0.10;;;;;;;;;;5131086;28;20542;-51
2023/10/04 06:13:25;;;;;;;0.10;0.10;;;;;;;;;;5131292;28;20082;-49
2023/10/04 06:15:53;;;;;;;0.10;0.10;;;;;;;;;;5130560;28;20051;-49
2023/10/04 06:18:19;;;;;;;0.10;0.10;;;;;;;;;;5130582;27;20050;-51
2023/10/04 06:20:45;;;;;;;0.20;0.20;;;;;;;;;;5108642;27;20584;-50
2023/10/04 06:23:14;;;;;;;0.20;0.20;;;;;;;;;;5090326;28;20044;-52
2023/10/04 06:25:41;;;;;;;0.10;0.10;;;;;;;;;;5090273;28;20144;-51
2023/10/04 06:28:09;;;;;;;0.20;0.20;;;;;;;;;;5101239;28;20043;-51
2023/10/04 06:30:35;;;;;;;0.10;0.10;;;;;;;;;;5130839;27;20054;-51
2023/10/04 06:33:01;;;;;;;0.10;0.10;;;;;;;;;;5131241;28;20043;-51
2023/10/04 06:35:28;;;;;;;0.10;0.10;;;;;;;;;;5131187;27;20039;-51
2023/10/04 06:37:56;;;;;;;0.10;0.10;;;;;;;;;;5131124;27;20062;-50
2023/10/04 06:40:22;;;;;;;0.10;0.10;;;;;;;;;;5131128;27;20049;-51
2023/10/04 06:42:49;;;;;;;0.10;0.10;;;;;;;;;;5130071;27;20043;-51
2023/10/04 06:45:16;;;;;;;0.10;0.10;;;;;;;;;;5130802;27;20055;-50
2023/10/04 06:47:44;;;;;;;0.10;0.10;;;;;;;;;;5129565;27;20047;-49
2023/10/04 06:50:13;;;;;;;0.10;0.10;;;;;;;;;;5129943;27;20047;-49
2023/10/04 06:52:40;;;;;;;0.10;0.10;;;;;;;;;;5130763;27;20055;-50
2023/10/04 06:55:08;;;;;;;0.10;0.10;;;;;;;;;;5130626;27;20072;-51
2023/10/04 06:57:35;;;;;;;0.38;0.38;;;;;;;;;;5129551;27;20043;-50
2023/10/04 07:00:01;;;;;;;0.10;0.10;;;;;;;;;;5130947;27;20419;-50
2023/10/04 07:02:26;;;;;;;0.13;0.13;;;;;;;;;;5130684;27;20071;-52
2023/10/04 07:04:52;;;;;;;0.10;0.10;;;;;;;;;;5130777;28;20448;-51
2023/10/04 07:07:18;;;;;;;0.10;0.10;;;;;;;;;;5131619;27;20399;-52
2023/10/04 07:09:44;;;;;;;0.10;0.10;;;;;;;;;;5134096;28;20051;-51
2023/10/04 07:12:10;;;;;;;0.10;0.10;;;;;;;;;;5134224;27;20047;-51
2023/10/04 07:14:35;;;;;;;0.10;0.10;;;;;;;;;;5133782;28;20051;-52
2023/10/04 07:17:02;;;;;;;0.10;0.10;;;;;;;;;;5134106;28;20471;-51
2023/10/04 07:19:29;;;;;;;0.10;0.10;;;;;;;;;;5125362;27;20043;-50
2023/10/04 07:21:55;;;;;;;0.17;0.17;;;;;;;;;;5134165;28;20055;-52
2023/10/04 07:24:20;;;;;;;0.20;0.20;;;;;;;;;;5134136;28;20055;-52
2023/10/04 07:26:46;;;;;;;0.10;0.10;;;;;;;;;;5133989;28;20058;-52
2023/10/04 07:29:12;;;;;;;0.10;0.10;;;;;;;;;;5133745;28;20074;-51
2023/10/04 07:31:38;;;;;;;0.20;0.20;;;;;;;;;;5133837;28;20043;-52
2023/10/04 07:34:03;;;;;;;0.10;0.10;;;;;;;;;;5134309;27;20062;-51
2023/10/04 07:36:30;;;;;;;0.10;0.10;;;;;;;;;;5134254;28;20051;-52
2023/10/04 07:38:55;;;;;;;0.10;0.10;;;;;;;;;;5133815;28;20054;-51
2023/10/04 07:41:21;;;;;;;0.20;0.20;;;;;;;;;;5133507;27;20051;-50
2023/10/04 07:43:46;;;;;;;0.20;0.20;;;;;;;;;;5132917;28;20043;-52
2023/10/04 07:46:12;;;;;;;0.10;0.10;;;;;;;;;;5133373;27;20546;-52
2023/10/04 07:48:37;;;;;;;0.10;0.10;;;;;;;;;;5133338;27;20123;-52
2023/10/04 07:51:03;;;;;;;0.10;0.10;;;;;;;;;;5133288;28;20085;-51
2023/10/04 07:53:29;;;;;;;0.10;0.10;;;;;;;;;;5133726;28;20051;-52
2023/10/04 07:55:54;;;;;;;0.10;0.10;;;;;;;;;;5133549;27;20070;-50
2023/10/04 07:58:20;;;;;;;0.10;0.10;;;;;;;;;;5132736;28;20079;-51
2023/10/04 08:00:45;;;;;;;0.10;0.10;;;;;;;;;;5133518;28;20043;-52
2023/10/04 08:03:11;;;;;;;0.10;0.10;;;;;;;;;;5133876;27;20101;-50
2023/10/04 08:05:39;;;;;;;0.20;0.20;;;;;;;;;;5133009;27;20414;-51
2023/10/04 08:08:05;;;;;;;0.10;0.10;;;;;;;;;;5132994;27;20456;-52
2023/10/04 08:10:33;;;;;;;0.10;0.10;;;;;;;;;;5133883;27;20085;-51
2023/10/04 08:12:59;;;;;;;0.10;0.10;;;;;;;;;;5133548;27;20096;-52
2023/10/04 08:15:26;;;;;;;0.10;0.10;;;;;;;;;;5133603;27;20449;-51
2023/10/04 08:17:52;;;;;;;0.10;0.10;;;;;;;;;;5133226;27;20479;-52
2023/10/04 08:20:19;;;;;;;0.10;0.10;;;;;;;;;;5126615;27;20051;-51
2023/10/04 08:22:45;;;;;;;0.10;0.10;;;;;;;;;;5154501;27;20053;-50
2023/10/04 08:25:13;;;;;;;0.10;0.10;;;;;;;;;;5154601;27;20050;-52
2023/10/04 08:27:39;;;;;;;0.13;0.13;;;;;;;;;;5152022;27;20151;-52
2023/10/04 08:30:06;;;;;;;0.10;0.10;;;;;;;;;;5133477;27;20495;-51
2023/10/04 08:32:31;;;;;;;0.10;0.10;;;;;;;;;;5133336;27;20460;-52
2023/10/04 08:34:58;;;;;;;0.10;0.10;;;;;;;;;;5133484;28;20476;-52
2023/10/04 08:37:24;;;;;;;0.20;0.20;;;;;;;;;;5133499;27;20089;-52
2023/10/04 08:39:49;;;;;;;0.10;0.10;;;;;;;;;;5133148;28;20051;-52
2023/10/04 08:42:15;;;;;;;0.15;0.15;;;;;;;;;;5132201;27;20043;-51
2023/10/04 08:44:40;;;;;;;0.20;0.20;;;;;;;;;;5132303;28;20065;-52
2023/10/04 08:47:08;;;;;;;0.10;0.10;;;;;;;;;;5131387;28;20043;-51
2023/10/04 08:49:40;;;;;;;0.20;0.20;;;;;;;;;;5132369;28;20058;-52
2023/10/04 08:52:13;;;;;;;0.10;0.10;;;;;;;;;;5131686;27;20502;-52
2023/10/04 08:54:39;;;;;;;0.10;0.10;;;;;;;;;;5131762;27;20408;-52
2023/10/04 08:57:09;;;;;;;0.10;0.10;;;;;;;;;;5132239;27;20046;-51
2023/10/04 08:59:35;;;;;;;0.20;0.20;;;;;;;;;;5131242;27;20039;-52
2023/10/04 09:02:02;;;;;;;0.10;0.10;;;;;;;;;;5131127;28;20054;-51
2023/10/04 09:04:28;;;;;;;0.10;0.10;;;;;;;;;;5132399;28;20051;-52
2023/10/04 09:06:53;;;;;;;0.10;0.10;;;;;;;;;;5131553;28;20055;-52
2023/10/04 09:09:19;;;;;;;0.10;0.10;;;;;;;;;;5131390;28;20095;-51
2023/10/04 09:11:45;;;;;;;0.20;0.20;;;;;;;;;;5131151;28;20047;-51
2023/10/04 09:14:12;;;;;;;0.10;0.10;;;;;;;;;;5131814;27;20456;-51
2023/10/04 09:16:37;;;;;;;0.10;0.10;;;;;;;;;;5131942;27;20047;-51
2023/10/04 09:19:07;;;;;;;0.10;0.10;;;;;;;;;;5127726;27;20047;-50
2023/10/04 09:21:33;;;;;;;0.10;0.10;;;;;;;;;;5149893;27;20054;-52
2023/10/04 09:24:14;;;;;;;0.10;0.10;;;;;;;;;;5152505;27;20058;-51
2023/10/04 09:26:56;;;;;;;0.20;0.20;;;;;;;;;;5152698;27;20043;-51
2023/10/04 09:29:30;;;;;;;0.10;0.10;;;;;;;;;;5136231;27;20047;-51
2023/10/04 09:31:56;;;;;;;0.10;0.10;;;;;;;;;;5130440;27;20055;-51
2023/10/04 09:34:23;;;;;;;0.10;0.10;;;;;;;;;;5131552;27;20047;-50
2023/10/04 09:36:52;;;;;;;0.10;0.10;;;;;;;;;;5132132;27;20058;-51
2023/10/04 09:39:23;;;;;;;0.10;0.10;;;;;;;;;;5131671;27;20398;-52
2023/10/04 09:41:50;;;;;;;0.10;0.10;;;;;;;;;;5131845;27;20151;-52
2023/10/04 09:44:30;;;;;;;0.10;0.10;;;;;;;;;;5131766;27;20071;-52
2023/10/04 09:46:59;;;;;;;0.10;0.10;;;;;;;;;;5131766;27;20411;-52
2023/10/04 09:49:26;;;;;;;0.10;0.10;;;;;;;;;;5131194;27;20114;-51
2023/10/04 09:51:53;;;;;;;0.20;0.20;;;;;;;;;;5132190;28;20090;-52
2023/10/04 09:54:19;;;;;;;0.13;0.13;;;;;;;;;;5132396;28;20047;-51
2023/10/04 09:56:47;;;;;;;0.10;0.10;;;;;;;;;;5132274;28;20403;-51
2023/10/04 09:59:15;;;;;;;0.10;0.10;;;;;;;;;;5131326;28;20058;-50
2023/10/04 10:01:41;;;;;;;0.10;0.10;;;;;;;;;;5131787;27;20058;-52
2023/10/04 10:04:10;;;;;;;0.20;0.20;;;;;;;;;;5131769;28;20047;-52
2023/10/04 10:06:45;;;;;;;0.10;0.10;;;;;;;;;;5131230;28;20047;-51
2023/10/04 10:09:16;;;;;;;0.10;0.10;;;;;;;;;;5131037;28;20113;-50
2023/10/04 10:11:45;;;;;;;0.10;0.10;;;;;;;;;;5130863;27;20058;-52
2023/10/04 10:14:14;;;;;;;0.10;0.10;;;;;;;;;;5131292;27;20476;-52
2023/10/04 10:16:41;;;;;;;0.10;0.10;;;;;;;;;;5131189;27;20043;-50
2023/10/04 10:19:08;;;;;;;0.10;0.10;;;;;;;;;;5135278;27;20074;-52
2023/10/04 10:21:54;;;;;;;0.10;0.10;;;;;;;;;;5151628;27;20585;-51
2023/10/04 10:24:21;;;;;;;0.20;0.20;;;;;;;;;;5136517;27;20046;-51
2023/10/04 10:26:47;;;;;;;0.10;0.10;;;;;;;;;;5152012;27;20491;-51
2023/10/04 10:29:20;;;;;;;0.15;0.15;;;;;;;;;;5136828;27;20043;-51
2023/10/04 10:31:53;;;;;;;0.10;0.10;;;;;;;;;;5131068;27;20046;-52
2023/10/04 10:34:18;;;;;;;0.10;0.10;;;;;;;;;;5131314;27;20514;-51
2023/10/04 10:36:44;;;;;;;0.20;0.20;;;;;;;;;;5131600;28;20047;-51
2023/10/04 10:39:28;;;;;;;0.10;0.10;;;;;;;;;;5130928;28;20047;-51
2023/10/04 10:41:55;;;;;;;0.10;0.10;;;;;;;;;;5130127;27;20531;-52
2023/10/04 10:44:20;;;;;;;0.10;0.10;;;;;;;;;;5130851;27;20065;-51
2023/10/04 10:47:07;;;;;;;0.10;0.10;;;;;;;;;;5130952;28;20047;-51
2023/10/04 10:49:41;;;;;;;0.10;0.10;;;;;;;;;;5128233;28;20078;-52
2023/10/04 10:52:27;;;;;;;0.10;0.10;;;;;;;;;;5130103;28;20165;-52
2023/10/04 10:54:53;;;;;;;0.10;0.10;;;;;;;;;;5130004;28;20059;-52
2023/10/04 10:57:20;;;;;;;0.10;0.10;;;;;;;;;;5131065;27;20043;-51
2023/10/04 10:59:46;;;;;;;0.10;0.10;;;;;;;;;;5129883;27;20039;-51
2023/10/04 11:02:12;;;;;;;0.10;0.10;;;;;;;;;;5130511;28;20049;-51
2023/10/04 11:04:38;;;;;;;0.10;0.10;;;;;;;;;;5130877;27;20503;-51
2023/10/04 11:07:06;;;;;;;0.17;0.17;;;;;;;;;;5130621;27;20055;-51
2023/10/04 11:09:37;;;;;;;0.10;0.10;;;;;;;;;;5128885;28;20092;-51
2023/10/04 11:12:12;;;;;;;0.10;0.10;;;;;;;;;;5129668;28;20142;-51
2023/10/04 11:14:38;;;;;;;0.20;0.20;;;;;;;;;;5130395;28;20108;-51
2023/10/04 11:17:04;;;;;;;0.10;0.10;;;;;;;;;;5125307;27;20059;-52
2023/10/04 11:19:31;;;;;;;0.10;0.10;;;;;;;;;;5131263;27;20043;-52
2023/10/04 11:21:57;;;;;;;0.20;0.20;;;;;;;;;;5129896;27;20051;-51
2023/10/04 11:24:23;;;;;;;0.20;0.20;;;;;;;;;;5130699;28;20793;-51
2023/10/04 11:26:48;;;;;;;0.20;0.20;;;;;;;;;;5130280;28;20055;-51
2023/10/04 11:29:14;;;;;;;0.20;0.20;;;;;;;;;;5129864;28;20043;-51
2023/10/04 11:31:40;;;;;;;0.10;0.10;;;;;;;;;;5130111;28;20228;-52
2023/10/04 11:34:12;;;;;;;0.10;0.10;;;;;;;;;;5130357;28;20051;-51
2023/10/04 11:36:37;;;;;;;0.10;0.10;;;;;;;;;;5130015;28;20142;-51
2023/10/04 11:39:10;;;;;;;0.20;0.20;;;;;;;;;;5130393;28;20570;-50
2023/10/04 11:41:39;;;;;;;0.20;0.20;;;;;;;;;;5130254;28;20054;-51
2023/10/04 11:44:06;;;;;;;0.10;0.10;;;;;;;;;;5130261;28;20078;-51
2023/10/04 11:46:53;;;;;;;0.10;0.10;;;;;;;;;;5129907;27;20449;-51
2023/10/04 11:49:19;;;;;;;0.10;0.10;;;;;;;;;;5115234;27;20058;-52
2023/10/04 11:51:44;;;;;;;0.10;0.10;;;;;;;;;;5130407;28;20047;-51
2023/10/04 11:54:11;;;;;;;0.10;0.10;;;;;;;;;;5131139;27;20055;-51
2023/10/04 11:56:38;;;;;;;0.10;0.10;;;;;;;;;;5134423;28;20039;-51
2023/10/04 11:59:04;;;;;;;0.10;0.10;;;;;;;;;;5133834;28;20501;-51
2023/10/04 12:01:29;;;;;;;0.15;0.15;;;;;;;;;;5134002;28;20047;-50
2023/10/04 12:03:56;;;;;;;0.10;0.10;;;;;;;;;;5134188;28;20054;-52
2023/10/04 12:06:22;;;;;;;0.10;0.10;;;;;;;;;;5134081;28;20047;-51
2023/10/04 12:08:48;;;;;;;0.10;0.10;;;;;;;;;;5133743;28;20104;-52
2023/10/04 12:11:13;;;;;;;0.10;0.10;;;;;;;;;;5133612;28;20055;-52
2023/10/04 12:13:40;;;;;;;0.10;0.10;;;;;;;;;;5132933;28;20458;-51
2023/10/04 12:16:05;;;;;;;0.10;0.10;;;;;;;;;;5128515;28;20050;-51
2023/10/04 12:18:31;;;;;;;0.10;0.10;;;;;;;;;;5122065;27;20059;-51
2023/10/04 12:20:57;;;;;;;0.10;0.10;;;;;;;;;;5144935;27;20085;-51
2023/10/04 12:23:22;;;;;;;0.10;0.10;;;;;;;;;;5132116;28;20043;-52
2023/10/04 12:25:48;;;;;;;0.10;0.10;;;;;;;;;;5133706;28;20051;-52
2023/10/04 12:28:14;;;;;;;0.10;0.10;;;;;;;;;;5133245;27;20601;-51
2023/10/04 12:30:39;;;;;;;0.10;0.10;;;;;;;;;;5133992;28;20050;-52
2023/10/04 12:33:05;;;;;;;0.10;0.10;;;;;;;;;;5133301;27;20043;-51
2023/10/04 12:35:31;;;;;;;0.10;0.10;;;;;;;;;;5133798;28;20126;-51
2023/10/04 12:37:57;;;;;;;0.10;0.10;;;;;;;;;;5132876;28;20071;-51
2023/10/04 12:40:23;;;;;;;0.10;0.10;;;;;;;;;;5133609;28;20051;-51
2023/10/04 12:42:51;;;;;;;0.10;0.10;;;;;;;;;;5132564;28;20582;-51
2023/10/04 12:45:17;;;;;;;0.10;0.10;;;;;;;;;;5133401;28;20047;-50
2023/10/04 12:47:43;;;;;;;0.10;0.10;;;;;;;;;;5131799;28;20053;-51
2023/10/04 12:50:10;;;;;;;0.10;0.10;;;;;;;;;;5132790;28;20043;-52
2023/10/04 12:52:40;;;;;;;0.10;0.10;;;;;;;;;;5132677;27;20058;-51
2023/10/04 12:55:06;;;;;;;0.15;0.15;;;;;;;;;;5132945;28;20043;-52
2023/10/04 12:57:33;;;;;;;0.20;0.20;;;;;;;;;;5132883;28;20048;-51
2023/10/04 12:59:59;;;;;;;0.10;0.10;;;;;;;;;;5132847;28;20047;-51
2023/10/04 13:02:25;;;;;;;0.10;0.10;;;;;;;;;;5132948;28;20142;-49
2023/10/04 13:04:51;;;;;;;0.10;0.10;;;;;;;;;;5132846;27;20100;-51
2023/10/04 13:07:18;;;;;;;0.10;0.10;;;;;;;;;;5132727;28;20142;-51
2023/10/04 13:09:44;;;;;;;0.10;0.10;;;;;;;;;;5132232;28;20442;-51
2023/10/04 13:12:24;;;;;;;0.10;0.10;;;;;;;;;;5132233;28;20574;-51
2023/10/04 13:14:50;;;;;;;0.10;0.10;;;;;;;;;;5132080;28;20054;-51
2023/10/04 13:17:19;;;;;;;0.10;0.10;;;;;;;;;;5131089;27;20429;-51
2023/10/04 13:19:45;;;;;;;0.20;0.20;;;;;;;;;;5144483;27;20050;-51
2023/10/04 13:22:12;;;;;;;0.10;0.10;;;;;;;;;;5149010;27;20047;-51
2023/10/04 13:24:37;;;;;;;0.20;0.20;;;;;;;;;;5131553;27;20444;-50
2023/10/04 13:27:03;;;;;;;0.10;0.10;;;;;;;;;;5132339;28;20548;-51
2023/10/04 13:29:30;;;;;;;0.10;0.10;;;;;;;;;;5131725;27;20415;-52
2023/10/04 13:31:55;;;;;;;0.10;0.10;;;;;;;;;;5132493;28;20103;-49
2023/10/04 13:34:21;;;;;;;0.20;0.20;;;;;;;;;;5131781;28;20142;-51
2023/10/04 13:36:46;;;;;;;0.10;0.10;;;;;;;;;;5131410;27;20483;-51
2023/10/04 13:39:13;;;;;;;0.10;0.10;;;;;;;;;;5131180;28;20054;-48
2023/10/04 13:41:38;;;;;;;0.10;0.10;;;;;;;;;;5131362;28;20135;-51
2023/10/04 13:44:04;;;;;;;0.10;0.10;;;;;;;;;;5131896;28;20067;-50
2023/10/04 13:46:30;;;;;;;0.10;0.10;;;;;;;;;;5131445;28;20043;-50
2023/10/04 13:48:55;;;;;;;0.10;0.10;;;;;;;;;;5130906;28;20047;-51
2023/10/04 13:51:22;;;;;;;0.10;0.10;;;;;;;;;;5131554;28;20410;-51
2023/10/04 13:53:47;;;;;;;0.10;0.10;;;;;;;;;;5130970;28;20051;-51
2023/10/04 13:56:13;;;;;;;0.10;0.10;;;;;;;;;;5131854;28;20475;-51
2023/10/04 13:58:39;;;;;;;0.10;0.10;;;;;;;;;;5131523;28;20043;-53
2023/10/04 14:01:04;;;;;;;0.13;0.13;;;;;;;;;;5131574;27;20084;-51
2023/10/04 14:03:35;;;;;;;0.10;0.10;;;;;;;;;;5131782;28;20067;-51
2023/10/04 14:06:06;;;;;;;0.10;0.10;;;;;;;;;;5131423;28;20200;-51
2023/10/04 14:08:33;;;;;;;0.20;0.20;;;;;;;;;;5130638;28;20042;-51
2023/10/04 14:10:59;;;;;;;0.10;0.10;;;;;;;;;;5131361;28;20054;-49
2023/10/04 14:13:24;;;;;;;0.13;0.13;;;;;;;;;;5130252;28;20051;-49
2023/10/04 14:15:55;;;;;;;0.10;0.10;;;;;;;;;;5129997;28;20089;-51
2023/10/04 14:18:23;;;;;;;0.10;0.10;;;;;;;;;;5129604;27;20043;-51
2023/10/04 14:20:48;;;;;;;0.10;0.10;;;;;;;;;;5131029;28;20438;-51
2023/10/04 14:23:14;;;;;;;0.10;0.10;;;;;;;;;;5131132;28;20499;-50
2023/10/04 14:25:39;;;;;;;0.10;0.10;;;;;;;;;;5130662;28;20516;-51
2023/10/04 14:28:06;;;;;;;0.10;0.10;;;;;;;;;;5130622;28;20039;-50
2023/10/04 14:30:32;;;;;;;0.10;0.10;;;;;;;;;;5131565;28;20062;-51
2023/10/04 14:32:58;;;;;;;0.10;0.10;;;;;;;;;;5131151;28;20047;-50
2023/10/04 14:35:24;;;;;;;0.10;0.10;;;;;;;;;;5131431;28;20464;-51
2023/10/04 14:37:49;;;;;;;0.20;0.20;;;;;;;;;;5130646;28;20078;-51
2023/10/04 14:40:19;;;;;;;0.20;0.20;;;;;;;;;;5131382;28;20054;-51
2023/10/04 14:42:45;;;;;;;0.17;0.17;;;;;;;;;;5130356;28;20399;-50